map of AVB home
AVB - Airport
Location
City:  Aviano, Friuli-Venezia Giulia, Italy
Name:Aviano AB
Old (Alt.):Pagliano e Gori
ICAO:LIPA
IATA:AVB

Details
Type:Airport (Aerodrome, Airfield)
Use:Military, International (customs port of entry)
Latitude:4601'55"N (46.031889)
Longitude:1235'47"E (12.596472)
Datum:WGS 1984
Elevation:410 ft (125 m)
Variation:3.36E (WMM2015 magnetic declination)
0.11 annual change
Runways:1
Longest:8551 × 144 ft (2606 × 44 m), paved

Time
Time Zone:UTC+1 (DST+2)
Local Time:

Weather
METAR:LIPA 191855Z 09012KT 9999 -DZ BKN045 06/02 Q1010 RMK BKN VIS MIN 9999 WIND THR05 10012KT WIND THR23 08010KT A2984 BLU

Related Locations
Nearby:
Farthest:CHT: 11970 mi / 19263 km
Waitangi [Tuuta], CIT, NZ

Find:

   beyond  
but within

Other Information
Maps:
NOTAMs:
Links:
Sources:

  
  • flag of Italy
  • flag of Friuli-Venezia Giulia
  

Airport Diagram

Airport diagram for AVB

Larger airport diagram (OBSOLETE) from NGA

Sectional Chart

Flight Planning
at skyvector.com

Satellite Image

Google Maps Satellite view

 

Copyright © 2004-2018 Karl L. Swartz. All rights reserved.
The Great Circle Mapper name and logo are trademarks of the Great Circle Mapper.
All other trademarks mentioned herein belong to their respective owners.
Please see credits for attibutions and further copyright information.

  Follow gcmap on Facebook Follow gcmap on Twitter Follow gcmap on Google+ GCmap on LinkedIn

hCard Microformat

Geo Microformat